createdAt,value
2022-08-17T00:00:18.250Z,7.00
2022-08-17T00:03:13.688Z,6.88
2022-08-17T00:05:44.471Z,6.97
2022-08-17T00:08:14.715Z,7.35
2022-08-17T00:10:46.101Z,6.85
2022-08-17T00:13:17.590Z,6.65
2022-08-17T00:15:45.440Z,7.80
2022-08-17T00:18:58.207Z,7.30
2022-08-17T00:21:04.870Z,7.38
2022-08-17T00:23:39.142Z,7.50
2022-08-17T00:26:43.477Z,7.30
2022-08-17T00:29:06.256Z,8.00
2022-08-17T00:31:35.545Z,7.15
2022-08-17T00:34:03.977Z,7.13
2022-08-17T00:36:31.923Z,7.25
2022-08-17T00:38:59.738Z,7.55
2022-08-17T00:41:30.997Z,7.50
2022-08-17T00:44:02.876Z,7.70
2022-08-17T00:46:33.194Z,7.40
2022-08-17T00:49:01.006Z,6.85
2022-08-17T00:51:33.582Z,7.78
2022-08-17T00:54:12.058Z,7.53
2022-08-17T00:56:45.556Z,7.70
2022-08-17T00:59:17.961Z,7.13
2022-08-17T01:01:46.439Z,7.57
2022-08-17T01:04:15.055Z,7.32
2022-08-17T01:06:46.909Z,7.38
2022-08-17T01:09:15.527Z,7.50
2022-08-17T01:11:46.570Z,7.30
2022-08-17T01:14:14.563Z,8.90
2022-08-17T01:16:42.370Z,7.60
2022-08-17T01:19:16.161Z,7.50
2022-08-17T01:21:50.761Z,7.25
2022-08-17T01:24:20.209Z,7.38
2022-08-17T01:26:48.618Z,7.60
2022-08-17T01:29:17.527Z,7.55
2022-08-17T01:31:47.982Z,7.45
2022-08-17T01:34:17.629Z,7.60
2022-08-17T01:36:47.196Z,7.70
2022-08-17T01:39:23.059Z,7.03
2022-08-17T01:41:52.837Z,7.90
2022-08-17T01:44:21.550Z,7.85
2022-08-17T01:46:49.357Z,7.63
2022-08-17T01:49:17.107Z,8.02
2022-08-17T01:51:44.851Z,8.40
2022-08-17T01:54:19.604Z,7.90
2022-08-17T01:56:51.734Z,8.03
2022-08-17T01:59:20.748Z,8.20
2022-08-17T02:01:48.954Z,7.60
2022-08-17T02:04:17.311Z,7.78
2022-08-17T02:06:53.350Z,7.72
2022-08-17T02:09:24.105Z,7.57
2022-08-17T02:11:55.188Z,7.80
2022-08-17T02:14:25.081Z,7.55
2022-08-17T02:16:53.756Z,7.93
2022-08-17T02:19:22.268Z,7.45
2022-08-17T02:21:52.592Z,8.65
2022-08-17T02:24:59.900Z,7.70
2022-08-17T02:27:13.645Z,8.13
2022-08-17T02:29:41.433Z,8.23
2022-08-17T02:32:20.767Z,8.38
2022-08-17T02:34:55.092Z,7.93
2022-08-17T02:37:22.898Z,7.93
2022-08-17T02:39:50.751Z,8.73
2022-08-17T02:42:19.882Z,8.07
2022-08-17T02:44:47.976Z,8.15
2022-08-17T02:47:15.716Z,8.25
2022-08-17T02:49:54.119Z,8.48
2022-08-17T02:52:43.442Z,7.90
2022-08-17T02:55:14.220Z,8.68
2022-08-17T02:57:43.441Z,8.40
2022-08-17T03:00:14.648Z,8.63
2022-08-17T03:02:44.011Z,8.23
2022-08-17T03:05:15.106Z,8.23
2022-08-17T03:07:43.047Z,8.43
2022-08-17T03:10:12.512Z,8.27
2022-08-17T03:12:43.271Z,7.50
2022-08-17T03:15:16.359Z,8.27
2022-08-17T03:17:44.546Z,8.00
2022-08-17T03:20:13.907Z,8.45
2022-08-17T03:22:43.358Z,8.45
2022-08-17T03:25:21.420Z,8.38
2022-08-17T03:27:51.414Z,8.90
2022-08-17T03:30:22.415Z,8.65
2022-08-17T03:32:54.728Z,9.32
2022-08-17T03:35:25.527Z,9.57
2022-08-17T03:38:00.217Z,9.55
2022-08-17T03:40:55.130Z,9.13
2022-08-17T03:43:19.367Z,9.25
2022-08-17T03:46:06.290Z,9.38
2022-08-17T03:51:56.789Z,8.38
2022-08-17T03:54:42.014Z,8.63
2022-08-17T03:57:11.750Z,8.93
2022-08-17T03:59:40.565Z,8.73
2022-08-17T04:02:14.353Z,8.50
2022-08-17T04:04:42.166Z,8.40
2022-08-17T04:07:10.374Z,8.13
2022-08-17T04:09:38.163Z,8.15
2022-08-17T04:12:06.637Z,8.30
2022-08-17T04:14:36.686Z,8.90
2022-08-17T04:17:24.761Z,8.38
2022-08-17T04:19:52.951Z,8.70
2022-08-17T04:22:32.537Z,8.98
2022-08-17T04:25:08.617Z,8.18
2022-08-17T04:27:36.846Z,7.93
2022-08-17T04:30:07.641Z,8.43
2022-08-17T04:33:09.893Z,8.65
2022-08-17T04:35:41.178Z,8.00
2022-08-17T04:38:10.814Z,7.95
2022-08-17T04:40:56.604Z,7.72
2022-08-17T04:43:25.902Z,7.70
2022-08-17T04:45:56.625Z,7.60
2022-08-17T04:48:35.500Z,7.82
2022-08-17T04:51:09.758Z,7.28
2022-08-17T04:53:38.443Z,7.53
2022-08-17T04:56:06.747Z,6.70
2022-08-17T04:58:35.092Z,7.45
2022-08-17T05:01:02.885Z,8.20
2022-08-17T05:03:32.140Z,8.07
2022-08-17T05:05:59.923Z,7.35
2022-08-17T05:08:27.773Z,6.97
2022-08-17T05:10:55.909Z,7.40
2022-08-17T05:13:26.824Z,7.07
2022-08-17T05:15:58.195Z,7.53
2022-08-17T05:18:26.393Z,6.80
2022-08-17T05:20:56.018Z,7.18
2022-08-17T05:23:26.189Z,7.90
2022-08-17T05:25:56.323Z,7.82
2022-08-17T05:28:27.487Z,7.40
2022-08-17T05:30:57.276Z,6.47
2022-08-17T05:33:27.751Z,7.10
2022-08-17T05:35:59.003Z,6.85
2022-08-17T05:38:28.901Z,7.82
2022-08-17T05:41:08.031Z,6.72
2022-08-17T05:43:38.587Z,7.15
2022-08-17T05:46:11.897Z,6.70
2022-08-17T05:48:45.476Z,6.50
2022-08-17T05:51:28.839Z,6.50
2022-08-17T05:54:08.058Z,6.70
2022-08-17T05:57:04.228Z,6.68
2022-08-17T05:59:43.146Z,6.75
2022-08-17T06:02:20.331Z,5.97
2022-08-17T06:05:06.542Z,6.25
2022-08-17T06:07:46.082Z,6.65
2022-08-17T06:10:19.116Z,5.70
2022-08-17T06:13:01.465Z,6.15
2022-08-17T06:15:33.665Z,6.20
2022-08-17T06:18:05.374Z,5.50
2022-08-17T06:20:41.104Z,6.25
2022-08-17T06:23:14.271Z,5.68
2022-08-17T06:25:47.321Z,5.82
2022-08-17T06:28:21.876Z,5.30
2022-08-17T06:30:59.407Z,5.10
2022-08-17T06:33:37.103Z,5.60
2022-08-17T06:36:19.146Z,5.53
2022-08-17T06:38:56.578Z,5.60
2022-08-17T06:41:31.458Z,5.07
2022-08-17T06:44:10.932Z,5.13
2022-08-17T06:46:42.480Z,5.40
2022-08-17T06:49:21.742Z,5.07
2022-08-17T06:51:54.694Z,5.10
2022-08-17T06:54:34.930Z,5.18
2022-08-17T06:57:14.528Z,5.05
2022-08-17T06:59:55.843Z,4.72
2022-08-17T07:02:52.414Z,5.03
2022-08-17T07:05:23.384Z,5.05
2022-08-17T07:08:04.543Z,4.68
2022-08-17T07:10:44.392Z,5.57
2022-08-17T07:13:30.697Z,5.00
2022-08-17T07:16:08.609Z,5.22
2022-08-17T07:18:36.369Z,4.72
2022-08-17T07:21:22.874Z,5.65
2022-08-17T07:24:04.336Z,5.22
2022-08-17T07:26:33.541Z,5.78
2022-08-17T07:29:02.574Z,4.95
2022-08-17T07:31:33.490Z,4.93
2022-08-17T07:34:06.804Z,4.80
2022-08-17T07:36:35.248Z,4.93
2022-08-17T07:39:04.890Z,5.13
2022-08-17T07:41:57.476Z,4.82
2022-08-17T07:44:27.731Z,5.80
2022-08-17T07:47:13.612Z,5.35
2022-08-17T07:52:24.245Z,5.30
2022-08-17T07:55:00.524Z,4.75
2022-08-17T07:57:36.466Z,5.30
2022-08-17T08:00:16.274Z,5.00
2022-08-17T08:02:47.926Z,4.95
2022-08-17T08:05:48.606Z,5.00
2022-08-17T08:08:28.235Z,5.15
2022-08-17T08:11:03.745Z,4.65
2022-08-17T08:16:24.408Z,4.78
2022-08-17T08:18:57.365Z,4.90
2022-08-17T08:21:44.138Z,4.82
2022-08-17T08:24:31.260Z,4.57
2022-08-17T08:27:11.098Z,4.90
2022-08-17T08:29:49.988Z,4.50
2022-08-17T08:32:25.193Z,4.53
2022-08-17T08:35:03.656Z,4.70
2022-08-17T08:37:44.475Z,4.63
2022-08-17T08:40:30.324Z,5.13
2022-08-17T08:45:46.189Z,5.07
2022-08-17T08:48:53.026Z,4.75
2022-08-17T08:51:27.664Z,5.25
2022-08-17T08:54:04.599Z,5.63
2022-08-17T08:56:38.587Z,5.22
2022-08-17T08:59:18.985Z,4.63
2022-08-17T09:01:59.772Z,5.05
2022-08-17T09:05:12.891Z,5.15
2022-08-17T09:07:44.848Z,5.53
2022-08-17T09:10:21.099Z,5.47
2022-08-17T09:13:09.368Z,5.13
2022-08-17T09:15:44.027Z,4.93
2022-08-17T09:18:59.983Z,4.93
2022-08-17T09:21:15.439Z,5.32
2022-08-17T09:23:59.657Z,5.68
2022-08-17T09:26:32.370Z,4.85
2022-08-17T09:29:07.279Z,4.80
2022-08-17T09:31:48.766Z,5.10
2022-08-17T09:34:32.112Z,4.55
2022-08-17T09:37:15.037Z,5.15
2022-08-17T09:39:48.054Z,4.82
2022-08-17T09:42:22.723Z,4.80
2022-08-17T09:44:57.440Z,5.00
2022-08-17T09:47:31.677Z,4.95
2022-08-17T09:50:07.109Z,5.13
2022-08-17T09:55:02.844Z,5.03
2022-08-17T09:57:44.921Z,4.80
2022-08-17T10:00:20.537Z,4.97
2022-08-17T10:03:18.076Z,4.95
2022-08-17T10:05:56.286Z,4.85
2022-08-17T10:08:33.824Z,5.13
2022-08-17T10:11:15.225Z,5.03
2022-08-17T10:13:52.998Z,5.13
2022-08-17T10:16:28.469Z,4.97
2022-08-17T10:19:06.302Z,5.03
2022-08-17T10:22:00.913Z,5.10
2022-08-17T10:25:21.727Z,5.20
2022-08-17T10:27:44.942Z,4.80
2022-08-17T10:30:18.169Z,4.82
2022-08-17T10:32:49.682Z,5.25
2022-08-17T10:35:27.653Z,5.00
2022-08-17T10:38:24.530Z,5.03
2022-08-17T10:40:57.400Z,4.70
2022-08-17T10:43:38.398Z,4.90
2022-08-17T10:46:30.216Z,4.55
2022-08-17T10:49:22.878Z,4.25
2022-08-17T10:51:54.308Z,4.55
2022-08-17T10:54:45.406Z,4.35
2022-08-17T10:57:36.602Z,5.20
2022-08-17T11:00:12.878Z,4.68
2022-08-17T11:02:45.732Z,4.93
2022-08-17T11:05:43.786Z,4.70
2022-08-17T11:08:33.755Z,4.70
2022-08-17T11:11:47.452Z,4.40
2022-08-17T11:14:26.625Z,4.50
2022-08-17T11:17:13.082Z,4.93
2022-08-17T11:19:57.820Z,4.60
2022-08-17T11:23:03.803Z,4.20
2022-08-17T11:25:39.493Z,5.00
2022-08-17T11:28:15.259Z,5.18
2022-08-17T11:30:53.796Z,4.93
2022-08-17T11:33:58.072Z,4.97
2022-08-17T11:36:52.579Z,4.85
2022-08-17T11:39:37.791Z,4.78
2022-08-17T11:42:17.859Z,4.75
2022-08-17T11:44:54.331Z,4.97
2022-08-17T11:48:09.047Z,4.88
2022-08-17T11:51:06.094Z,4.53
2022-08-17T11:56:59.936Z,4.90
2022-08-17T11:59:59.061Z,5.00
2022-08-17T12:02:48.248Z,4.75
2022-08-17T12:05:40.767Z,5.50
2022-08-17T12:08:15.887Z,4.78
2022-08-17T12:10:55.343Z,5.20
2022-08-17T12:13:30.509Z,5.40
2022-08-17T12:16:09.926Z,4.85
2022-08-17T12:18:39.779Z,4.60
2022-08-17T12:21:20.665Z,4.60
2022-08-17T12:23:56.990Z,4.72
2022-08-17T12:26:30.319Z,4.53
2022-08-17T12:29:01.361Z,4.45
2022-08-17T12:31:35.441Z,4.95
2022-08-17T12:34:04.382Z,4.57
2022-08-17T12:36:33.932Z,3.92
2022-08-17T12:39:13.786Z,4.75
2022-08-17T12:41:45.071Z,4.85
2022-08-17T12:44:15.759Z,4.35
2022-08-17T12:46:52.281Z,4.15
2022-08-17T12:49:30.666Z,4.40
2022-08-17T12:52:09.393Z,4.05
2022-08-17T12:54:57.070Z,4.13
2022-08-17T12:57:29.202Z,3.88
2022-08-17T13:00:00.189Z,3.88
2022-08-17T13:02:45.082Z,4.00
2022-08-17T13:05:25.150Z,3.80
2022-08-17T13:07:54.518Z,4.00
2022-08-17T13:10:32.133Z,3.60
2022-08-17T13:13:04.880Z,3.78
2022-08-17T13:15:38.328Z,4.50
2022-08-17T13:18:39.485Z,4.20
2022-08-17T13:21:12.115Z,4.18
2022-08-17T13:23:39.935Z,3.90
2022-08-17T13:26:17.546Z,4.10
2022-08-17T13:28:49.638Z,4.03
2022-08-17T13:31:32.288Z,3.60
2022-08-17T13:34:18.174Z,3.92
2022-08-17T13:36:48.773Z,4.13
2022-08-17T13:39:21.389Z,4.20
2022-08-17T13:41:50.866Z,4.30
2022-08-17T13:44:31.896Z,3.88
2022-08-17T13:47:00.662Z,4.18
2022-08-17T13:49:48.260Z,4.10
2022-08-17T13:52:37.844Z,4.18
2022-08-17T13:55:16.069Z,3.97
2022-08-17T13:57:47.023Z,4.30
2022-08-17T14:00:19.767Z,4.35
2022-08-17T14:02:47.481Z,4.45
2022-08-17T14:05:16.830Z,4.25
2022-08-17T14:07:44.719Z,3.70
2022-08-17T14:10:17.280Z,3.83
2022-08-17T14:12:46.251Z,3.95
2022-08-17T14:15:16.656Z,3.85
2022-08-17T14:17:44.427Z,4.35
2022-08-17T14:20:13.705Z,4.13
2022-08-17T14:22:47.213Z,3.95
2022-08-17T14:25:17.588Z,3.88
2022-08-17T14:27:52.083Z,3.72
2022-08-17T14:30:23.735Z,3.70
2022-08-17T14:32:52.023Z,3.53
2022-08-17T14:35:22.350Z,4.05
2022-08-17T14:37:51.876Z,3.60
2022-08-17T14:40:24.798Z,3.80
2022-08-17T14:42:55.141Z,3.67
2022-08-17T14:45:29.628Z,3.90
2022-08-17T14:48:01.956Z,3.60
2022-08-17T14:50:29.703Z,3.60
2022-08-17T14:53:01.345Z,3.80
2022-08-17T14:55:29.821Z,3.75
2022-08-17T14:57:57.772Z,3.65
2022-08-17T15:00:26.057Z,3.28
2022-08-17T15:02:56.583Z,3.53
2022-08-17T15:05:27.498Z,3.80
2022-08-17T15:07:55.732Z,4.10
2022-08-17T15:10:26.041Z,4.20
2022-08-17T15:12:53.868Z,3.65
2022-08-17T15:15:22.241Z,3.35
2022-08-17T15:17:51.562Z,3.50
2022-08-17T15:20:21.708Z,2.97
2022-08-17T15:22:50.551Z,3.53
2022-08-17T15:25:22.095Z,3.35
2022-08-17T15:27:51.357Z,2.88
2022-08-17T15:30:19.323Z,3.58
2022-08-17T15:32:54.415Z,3.60
2022-08-17T15:35:28.250Z,3.33
2022-08-17T15:37:58.212Z,3.30
2022-08-17T15:40:26.121Z,3.40
2022-08-17T15:42:55.314Z,3.10
2022-08-17T15:45:26.960Z,3.25
2022-08-17T15:47:54.927Z,3.00
2022-08-17T15:50:22.764Z,2.65
2022-08-17T15:52:57.490Z,3.33
2022-08-17T15:55:26.737Z,3.75
2022-08-17T15:57:55.847Z,3.85
2022-08-17T16:00:24.721Z,3.35
2022-08-17T16:03:15.422Z,3.50
2022-08-17T16:05:41.069Z,3.10
2022-08-17T16:08:10.909Z,3.47
2022-08-17T16:10:39.008Z,3.72
2022-08-17T16:13:17.358Z,3.75
2022-08-17T16:15:51.088Z,3.40
2022-08-17T16:18:28.225Z,3.75
2022-08-17T16:20:56.276Z,3.45
2022-08-17T16:23:24.340Z,3.38
2022-08-17T16:25:53.534Z,3.50
2022-08-17T16:28:36.421Z,3.67
2022-08-17T16:31:08.009Z,3.00
2022-08-17T16:33:39.332Z,3.50
2022-08-17T16:36:08.525Z,3.40
2022-08-17T16:38:36.794Z,3.45
2022-08-17T16:41:05.712Z,3.30
2022-08-17T16:43:35.587Z,3.47
2022-08-17T16:46:03.694Z,3.53
2022-08-17T16:48:31.995Z,3.63
2022-08-17T16:51:04.439Z,3.40
2022-08-17T16:53:32.618Z,3.63
2022-08-17T16:56:00.408Z,3.92
2022-08-17T16:58:28.274Z,3.10
2022-08-17T17:00:59.413Z,3.50
2022-08-17T17:03:29.184Z,3.50
2022-08-17T17:06:09.833Z,3.35
2022-08-17T17:08:44.896Z,3.72
2022-08-17T17:11:15.607Z,3.60
2022-08-17T17:13:47.957Z,3.45
2022-08-17T17:16:21.775Z,3.15
2022-08-17T17:19:04.565Z,3.60
2022-08-17T17:21:42.401Z,5.25
2022-08-17T17:24:17.553Z,3.60
2022-08-17T17:27:07.366Z,3.50
2022-08-17T17:29:47.710Z,3.33
2022-08-17T17:32:22.540Z,3.40
2022-08-17T17:34:56.525Z,3.65
2022-08-17T17:37:32.331Z,3.10
2022-08-17T17:40:04.978Z,3.88
2022-08-17T17:42:33.601Z,3.88
2022-08-17T17:45:08.712Z,4.32
2022-08-17T17:47:38.324Z,6.07
2022-08-17T17:50:08.417Z,4.22
2022-08-17T17:52:47.412Z,4.45
2022-08-17T17:55:34.333Z,3.95
2022-08-17T17:58:13.732Z,4.55
2022-08-17T18:00:49.577Z,4.50
2022-08-17T18:03:43.451Z,3.85
2022-08-17T18:06:26.873Z,3.92
2022-08-17T18:09:08.677Z,3.88
2022-08-17T18:11:58.938Z,3.55
2022-08-17T18:14:42.188Z,3.92
2022-08-17T18:17:11.976Z,7.00
2022-08-17T18:19:41.505Z,4.47
2022-08-17T18:22:14.545Z,4.50
2022-08-17T18:24:44.220Z,10.85
2022-08-17T18:27:21.615Z,4.45
2022-08-17T18:29:51.102Z,3.95
2022-08-17T18:32:34.161Z,5.45
2022-08-17T18:35:27.889Z,4.75
2022-08-17T18:38:00.399Z,4.18
2022-08-17T18:40:35.453Z,4.57
2022-08-17T18:43:08.598Z,4.50
2022-08-17T18:45:41.038Z,4.22
2022-08-17T18:48:29.821Z,13.52
2022-08-17T18:51:21.086Z,3.92
2022-08-17T18:54:18.437Z,4.07
2022-08-17T18:56:52.108Z,4.40
2022-08-17T18:59:29.258Z,4.60
2022-08-17T19:02:34.520Z,4.80
2022-08-17T19:05:13.359Z,4.45
2022-08-17T19:07:45.228Z,4.82
2022-08-17T19:10:20.638Z,4.65
2022-08-17T19:12:52.819Z,5.00
2022-08-17T19:15:27.962Z,4.40
2022-08-17T19:18:01.754Z,4.35
2022-08-17T19:20:33.166Z,5.07
2022-08-17T19:23:09.772Z,6.10
2022-08-17T19:25:44.071Z,5.35
2022-08-17T19:28:22.327Z,5.28
2022-08-17T19:30:55.755Z,4.53
2022-08-17T19:33:23.845Z,4.90
2022-08-17T19:36:00.616Z,4.15
2022-08-17T19:38:41.497Z,4.47
2022-08-17T19:41:18.543Z,4.53
2022-08-17T19:44:00.285Z,4.72
2022-08-17T19:46:36.912Z,4.47
2022-08-17T19:49:17.078Z,4.82
2022-08-17T19:51:52.260Z,4.60
2022-08-17T19:54:31.011Z,4.70
2022-08-17T19:57:10.511Z,4.50
2022-08-17T19:59:50.224Z,4.60
2022-08-17T20:02:29.409Z,4.60
2022-08-17T20:05:01.535Z,4.93
2022-08-17T20:07:35.685Z,4.97
2022-08-17T20:10:09.433Z,4.55
2022-08-17T20:12:41.074Z,4.65
2022-08-17T20:15:12.316Z,4.50
2022-08-17T20:17:43.349Z,4.60
2022-08-17T20:20:23.357Z,4.88
2022-08-17T20:22:55.741Z,5.55
2022-08-17T20:25:32.157Z,5.50
2022-08-17T20:28:06.305Z,4.97
2022-08-17T20:30:38.978Z,4.93
2022-08-17T20:33:12.500Z,5.25
2022-08-17T20:36:00.527Z,4.88
2022-08-17T20:38:41.465Z,5.20
2022-08-17T20:41:16.698Z,5.25
2022-08-17T20:43:52.233Z,7.28
2022-08-17T20:46:31.444Z,6.05
2022-08-17T20:49:14.988Z,5.65
2022-08-17T20:52:01.657Z,5.80
2022-08-17T20:54:47.593Z,5.93
2022-08-17T20:57:47.368Z,5.88
2022-08-17T21:00:42.446Z,6.03
2022-08-17T21:03:50.301Z,5.68
2022-08-17T21:06:22.672Z,5.55
2022-08-17T21:08:58.408Z,5.22
2022-08-17T21:12:03.924Z,4.82
2022-08-17T21:14:59.765Z,4.80
2022-08-17T21:17:59.234Z,4.90
2022-08-17T21:20:32.965Z,4.80
2022-08-17T21:23:27.617Z,5.30
2022-08-17T21:26:19.892Z,4.40
2022-08-17T21:29:17.923Z,5.32
2022-08-17T21:32:24.578Z,4.78
2022-08-17T21:35:29.953Z,4.70
2022-08-17T21:38:03.919Z,4.78
2022-08-17T21:40:34.057Z,4.80
2022-08-17T21:43:17.628Z,5.57
2022-08-17T21:45:56.687Z,5.03
2022-08-17T21:48:27.340Z,5.10
2022-08-17T21:51:03.689Z,5.25
2022-08-17T21:53:38.728Z,4.88
2022-08-17T21:56:07.937Z,4.72
2022-08-17T21:58:40.280Z,4.90
2022-08-17T22:01:23.650Z,5.00
2022-08-17T22:04:08.570Z,5.22
2022-08-17T22:06:39.666Z,5.30
2022-08-17T22:09:15.947Z,4.97
2022-08-17T22:11:53.255Z,5.18
2022-08-17T22:14:22.475Z,5.28
2022-08-17T22:17:07.365Z,5.40
2022-08-17T22:19:38.233Z,5.50
2022-08-17T22:22:09.014Z,5.60
2022-08-17T22:24:36.985Z,5.32
2022-08-17T22:27:11.405Z,5.63
2022-08-17T22:29:57.537Z,5.85
2022-08-17T22:32:42.451Z,6.28
2022-08-17T22:35:28.422Z,6.13
2022-08-17T22:40:30.471Z,5.75
2022-08-17T22:42:59.770Z,6.13
2022-08-17T22:45:29.709Z,6.03
2022-08-17T22:47:59.907Z,6.30
2022-08-17T22:50:30.957Z,6.85
2022-08-17T22:53:19.311Z,7.22
2022-08-17T22:56:09.320Z,7.72
2022-08-17T22:59:02.376Z,6.97
2022-08-17T23:09:26.680Z,9.18
2022-08-17T23:11:58.708Z,8.52
2022-08-17T23:14:31.299Z,8.80
2022-08-17T23:17:00.675Z,8.90
2022-08-17T23:19:31.353Z,9.07
2022-08-17T23:22:05.029Z,9.40
2022-08-17T23:24:45.021Z,8.85
2022-08-17T23:27:13.153Z,8.15
2022-08-17T23:29:41.944Z,8.98
2022-08-17T23:32:14.620Z,8.70
2022-08-17T23:34:45.211Z,9.10
2022-08-17T23:37:15.120Z,8.93
2022-08-17T23:39:44.981Z,9.13
2022-08-17T23:42:16.151Z,8.65
2022-08-17T23:44:44.068Z,9.75
2022-08-17T23:47:12.337Z,9.30
2022-08-17T23:49:40.516Z,8.43
2022-08-17T23:52:12.570Z,8.15
2022-08-17T23:54:46.731Z,8.57
2022-08-17T23:57:16.491Z,7.60
2022-08-17T23:59:44.886Z,7.95
